createdAt,value
2022-09-28T00:01:22.174Z,7.50
2022-09-28T00:03:50.841Z,7.93
2022-09-28T00:06:20.197Z,8.13
2022-09-28T00:08:47.180Z,8.07
2022-09-28T00:11:15.535Z,8.03
2022-09-28T00:13:43.130Z,7.33
2022-09-28T00:16:14.274Z,7.77
2022-09-28T00:18:41.714Z,7.40
2022-09-28T00:21:17.129Z,7.83
2022-09-28T00:24:03.165Z,7.87
2022-09-28T00:26:32.430Z,7.30
2022-09-28T00:29:01.689Z,8.50
2022-09-28T00:31:31.860Z,7.77
2022-09-28T00:34:00.469Z,8.03
2022-09-28T00:36:29.699Z,7.70
2022-09-28T00:38:56.873Z,8.87
2022-09-28T00:41:24.730Z,8.27
2022-09-28T00:43:51.999Z,8.03
2022-09-28T00:46:32.430Z,8.40
2022-09-28T00:49:14.899Z,9.07
2022-09-28T00:51:44.585Z,8.60
2022-09-28T00:54:12.810Z,8.17
2022-09-28T00:56:42.823Z,8.77
2022-09-28T00:59:09.756Z,8.13
2022-09-28T01:01:36.917Z,8.97
2022-09-28T01:04:04.956Z,7.83
2022-09-28T01:06:34.726Z,8.63
2022-09-28T01:09:07.798Z,8.17
2022-09-28T01:11:38.676Z,8.30
2022-09-28T01:14:10.090Z,8.83
2022-09-28T01:16:49.139Z,8.47
2022-09-28T01:19:16.075Z,9.30
2022-09-28T01:21:45.489Z,8.73
2022-09-28T01:25:00.857Z,9.13
2022-09-28T01:27:50.862Z,8.57
2022-09-28T01:30:21.160Z,10.27
2022-09-28T01:33:08.598Z,9.53
2022-09-28T01:35:57.513Z,9.43
2022-09-28T01:38:33.375Z,10.43
2022-09-28T01:41:00.988Z,10.30
2022-09-28T01:43:29.346Z,9.63
2022-09-28T01:46:02.145Z,10.73
2022-09-28T01:48:39.507Z,10.63
2022-09-28T01:51:14.739Z,11.67
2022-09-28T01:53:48.558Z,11.97
2022-09-28T01:56:22.829Z,10.70
2022-09-28T01:58:55.210Z,11.83
2022-09-28T02:01:29.599Z,12.57
2022-09-28T02:04:04.143Z,12.13
2022-09-28T02:06:38.955Z,12.33
2022-09-28T02:09:16.058Z,13.03
2022-09-28T02:11:49.574Z,12.80
2022-09-28T02:14:18.462Z,13.90
2022-09-28T02:16:47.886Z,13.40
2022-09-28T02:19:28.249Z,12.87
2022-09-28T02:22:13.531Z,13.77
2022-09-28T02:24:54.190Z,12.97
2022-09-28T02:27:28.659Z,12.83
2022-09-28T02:29:55.361Z,13.23
2022-09-28T02:32:23.294Z,13.73
2022-09-28T02:34:49.859Z,14.60
2022-09-28T02:37:16.615Z,14.53
2022-09-28T02:39:43.172Z,15.07
2022-09-28T02:42:28.284Z,15.07
2022-09-28T02:45:26.601Z,14.90
2022-09-28T02:48:19.104Z,14.00
2022-09-28T02:51:10.669Z,14.23
2022-09-28T02:54:04.820Z,14.43
2022-09-28T02:56:38.934Z,14.60
2022-09-28T02:59:25.625Z,15.33
2022-09-28T03:01:58.107Z,13.70
2022-09-28T03:04:49.446Z,14.03
2022-09-28T03:07:28.981Z,13.77
2022-09-28T03:10:20.793Z,13.93
2022-09-28T03:12:49.545Z,12.83
2022-09-28T03:15:26.388Z,13.60
2022-09-28T03:17:53.574Z,13.57
2022-09-28T03:20:20.950Z,13.57
2022-09-28T03:23:05.907Z,14.30
2022-09-28T03:25:34.240Z,13.80
2022-09-28T03:28:00.974Z,12.70
2022-09-28T03:30:27.854Z,14.27
2022-09-28T03:33:00.873Z,14.10
2022-09-28T03:35:27.367Z,14.80
2022-09-28T03:37:57.663Z,14.53
2022-09-28T03:40:24.443Z,13.90
2022-09-28T03:42:51.059Z,12.77
2022-09-28T03:45:17.571Z,13.43
2022-09-28T03:47:47.290Z,13.77
2022-09-28T03:50:15.340Z,14.23
2022-09-28T03:52:42.542Z,15.60
2022-09-28T03:55:09.968Z,16.27
2022-09-28T03:57:36.899Z,16.37
2022-09-28T04:00:05.572Z,16.40
2022-09-28T04:02:32.202Z,17.80
2022-09-28T04:04:58.747Z,20.53
2022-09-28T04:07:29.033Z,21.40
2022-09-28T04:09:57.713Z,22.10
2022-09-28T04:12:24.317Z,20.73
2022-09-28T04:14:51.048Z,19.53
2022-09-28T04:17:17.638Z,18.70
2022-09-28T04:19:44.220Z,17.97
2022-09-28T04:22:10.834Z,19.30
2022-09-28T04:24:37.434Z,18.53
2022-09-28T04:27:22.269Z,18.10
2022-09-28T04:29:49.606Z,17.20
2022-09-28T04:32:16.356Z,19.97
2022-09-28T04:34:44.329Z,18.43
2022-09-28T04:37:11.242Z,19.23
2022-09-28T04:39:38.062Z,19.00
2022-09-28T04:42:04.708Z,17.27
2022-09-28T04:44:31.320Z,16.57
2022-09-28T04:47:02.890Z,18.97
2022-09-28T04:49:32.221Z,18.40
2022-09-28T04:51:58.846Z,17.20
2022-09-28T04:54:25.436Z,19.20
2022-09-28T04:56:53.338Z,21.10
2022-09-28T04:59:20.044Z,20.60
2022-09-28T05:01:47.580Z,19.20
2022-09-28T05:04:14.169Z,17.20
2022-09-28T05:06:40.900Z,18.10
2022-09-28T05:09:07.641Z,19.00
2022-09-28T05:11:34.168Z,18.67
2022-09-28T05:14:01.116Z,18.43
2022-09-28T05:16:28.629Z,16.97
2022-09-28T05:18:58.261Z,16.97
2022-09-28T05:21:26.468Z,18.37
2022-09-28T05:23:56.175Z,16.20
2022-09-28T05:26:23.385Z,16.63
2022-09-28T05:28:50.898Z,17.03
2022-09-28T05:31:17.649Z,18.07
2022-09-28T05:33:44.372Z,18.67
2022-09-28T05:36:11.197Z,17.77
2022-09-28T05:38:37.883Z,18.57
2022-09-28T05:41:06.689Z,19.47
2022-09-28T05:43:33.768Z,19.50
2022-09-28T05:46:00.555Z,18.93
2022-09-28T05:48:27.795Z,19.83
2022-09-28T05:50:54.393Z,18.97
2022-09-28T05:53:21.068Z,18.43
2022-09-28T05:55:47.863Z,19.37
2022-09-28T05:58:14.597Z,19.90
2022-09-28T06:00:41.252Z,19.57
2022-09-28T06:03:11.878Z,19.97
2022-09-28T06:05:39.996Z,20.50
2022-09-28T06:08:08.575Z,20.93
2022-09-28T06:10:35.639Z,19.37
2022-09-28T06:13:02.915Z,18.37
2022-09-28T06:15:32.478Z,19.27
2022-09-28T06:18:05.012Z,19.50
2022-09-28T06:20:35.785Z,19.83
2022-09-28T06:23:02.723Z,20.23
2022-09-28T06:25:29.714Z,18.63
2022-09-28T06:28:00.264Z,19.73
2022-09-28T06:30:28.568Z,19.90
2022-09-28T06:32:57.318Z,19.37
2022-09-28T06:35:25.630Z,19.40
2022-09-28T06:37:53.268Z,19.00
2022-09-28T06:40:21.437Z,19.60
2022-09-28T06:43:01.737Z,18.93
2022-09-28T06:45:30.018Z,18.40
2022-09-28T06:48:01.151Z,19.33
2022-09-28T06:50:32.336Z,18.67
2022-09-28T06:53:00.299Z,18.10
2022-09-28T06:55:27.991Z,18.10
2022-09-28T06:58:05.099Z,18.43
2022-09-28T07:00:34.915Z,18.73
2022-09-28T07:03:18.474Z,18.57
2022-09-28T07:05:48.673Z,18.60
2022-09-28T07:08:16.414Z,18.20
2022-09-28T07:10:50.793Z,18.73
2022-09-28T07:13:45.622Z,18.17
2022-09-28T07:16:04.438Z,17.50
2022-09-28T07:18:31.046Z,17.17
2022-09-28T07:20:58.186Z,16.90
2022-09-28T07:23:27.754Z,17.50
2022-09-28T07:25:54.764Z,17.73
2022-09-28T07:28:22.543Z,16.70
2022-09-28T07:30:49.208Z,17.73
2022-09-28T07:33:17.243Z,17.70
2022-09-28T07:35:54.042Z,18.43
2022-09-28T07:38:20.813Z,17.80
2022-09-28T07:41:20.139Z,19.63
2022-09-28T07:43:46.707Z,20.23
2022-09-28T07:46:13.336Z,20.20
2022-09-28T07:48:41.603Z,19.23
2022-09-28T07:51:09.509Z,20.13
2022-09-28T07:53:38.483Z,19.90
2022-09-28T07:56:08.714Z,17.00
2022-09-28T07:58:37.302Z,17.17
2022-09-28T08:01:10.560Z,19.00
2022-09-28T08:03:38.715Z,17.43
2022-09-28T08:06:09.879Z,16.53
2022-09-28T08:08:37.291Z,17.13
2022-09-28T08:11:06.409Z,15.67
2022-09-28T08:13:32.951Z,15.40
2022-09-28T08:16:03.204Z,15.70
2022-09-28T08:18:31.133Z,16.33
2022-09-28T08:21:16.448Z,15.53
2022-09-28T08:23:43.097Z,15.67
2022-09-28T08:26:13.403Z,14.67
2022-09-28T08:28:43.269Z,14.67
2022-09-28T08:31:10.089Z,13.93
2022-09-28T08:33:37.058Z,13.10
2022-09-28T08:36:04.484Z,13.17
2022-09-28T08:38:31.354Z,11.97
2022-09-28T08:41:19.476Z,13.07
2022-09-28T08:43:51.405Z,12.87
2022-09-28T08:46:26.479Z,13.20
2022-09-28T08:49:26.480Z,12.53
2022-09-28T08:51:59.653Z,11.23
2022-09-28T08:54:26.372Z,11.50
2022-09-28T08:56:57.053Z,11.43
2022-09-28T08:59:29.362Z,11.97
2022-09-28T09:02:00.843Z,12.10
2022-09-28T09:04:27.875Z,12.17
2022-09-28T09:07:14.294Z,11.20
2022-09-28T09:10:20.821Z,9.53
2022-09-28T09:13:19.625Z,10.43
2022-09-28T09:16:06.574Z,10.93
2022-09-28T09:18:55.552Z,10.63
2022-09-28T09:21:44.315Z,9.80
2022-09-28T09:24:21.534Z,10.43
2022-09-28T09:26:54.053Z,9.33
2022-09-28T09:29:26.710Z,9.00
2022-09-28T09:31:59.725Z,8.80
2022-09-28T09:34:46.766Z,8.33
2022-09-28T09:37:22.530Z,8.20
2022-09-28T09:40:26.425Z,8.20
2022-09-28T09:43:05.842Z,8.20
2022-09-28T09:45:53.985Z,7.30
2022-09-28T09:48:29.930Z,7.13
2022-09-28T09:51:03.169Z,7.20
2022-09-28T09:53:46.664Z,7.20
2022-09-28T09:56:34.665Z,7.10
2022-09-28T09:59:15.734Z,6.37
2022-09-28T10:01:42.442Z,6.90
2022-09-28T10:04:20.079Z,6.37
2022-09-28T10:06:49.852Z,7.30
2022-09-28T10:09:39.222Z,7.33
2022-09-28T10:12:11.116Z,6.80
2022-09-28T10:14:37.900Z,6.63
2022-09-28T10:17:05.216Z,6.57
2022-09-28T10:19:34.331Z,6.90
2022-09-28T10:22:05.942Z,6.87
2022-09-28T10:24:38.924Z,5.93
2022-09-28T10:27:08.577Z,5.50
2022-09-28T10:29:43.770Z,5.63
2022-09-28T10:32:22.279Z,6.40
2022-09-28T10:34:50.970Z,5.93
2022-09-28T10:37:19.014Z,6.60
2022-09-28T10:40:00.317Z,6.67
2022-09-28T10:42:33.201Z,6.83
2022-09-28T10:45:07.465Z,7.50
2022-09-28T10:47:35.590Z,7.73
2022-09-28T10:50:03.162Z,7.43
2022-09-28T10:52:38.865Z,6.30
2022-09-28T10:55:32.588Z,4.93
2022-09-28T10:58:25.163Z,7.07
2022-09-28T11:00:52.924Z,7.63
2022-09-28T11:03:24.660Z,6.73
2022-09-28T11:06:07.589Z,6.07
2022-09-28T11:08:44.626Z,5.43
2022-09-28T11:11:14.631Z,5.53
2022-09-28T11:13:47.889Z,4.70
2022-09-28T11:16:29.894Z,4.63
2022-09-28T11:18:59.361Z,3.87
2022-09-28T11:21:29.381Z,3.53
2022-09-28T11:24:19.321Z,3.60
2022-09-28T11:26:49.584Z,3.80
2022-09-28T11:29:39.211Z,3.40
2022-09-28T11:32:06.692Z,4.30
2022-09-28T11:34:59.150Z,3.93
2022-09-28T11:37:50.972Z,3.73
2022-09-28T11:40:48.033Z,3.10
2022-09-28T11:43:40.678Z,3.70
2022-09-28T11:46:20.988Z,3.37
2022-09-28T11:49:03.931Z,3.57
2022-09-28T11:51:35.640Z,3.50
2022-09-28T11:54:14.574Z,3.23
2022-09-28T11:56:46.066Z,3.57
2022-09-28T11:59:29.016Z,3.60
2022-09-28T12:02:03.581Z,4.00
2022-09-28T12:04:41.924Z,3.57
2022-09-28T12:07:43.749Z,3.40
2022-09-28T12:10:24.601Z,3.90
2022-09-28T12:13:01.221Z,3.10
2022-09-28T12:16:06.861Z,2.17
2022-09-28T12:18:44.702Z,2.80
2022-09-28T12:21:44.962Z,3.07
2022-09-28T12:24:29.359Z,2.73
2022-09-28T12:27:18.579Z,2.63
2022-09-28T12:29:55.121Z,3.40
2022-09-28T12:32:35.714Z,2.70
2022-09-28T12:35:02.814Z,2.80
2022-09-28T12:38:08.716Z,2.47
2022-09-28T12:40:37.404Z,2.37
2022-09-28T12:43:28.964Z,2.30
2022-09-28T12:46:27.846Z,2.20
2022-09-28T12:52:33.046Z,2.50
2022-09-28T12:55:24.464Z,2.90
2022-09-28T12:58:02.807Z,2.00
2022-09-28T13:00:46.710Z,2.20
2022-09-28T13:03:35.160Z,2.30
2022-09-28T13:06:23.636Z,2.20
2022-09-28T13:09:08.810Z,2.30
2022-09-28T13:11:54.547Z,2.50
2022-09-28T13:14:46.260Z,2.53
2022-09-28T13:17:43.489Z,2.60
2022-09-28T13:20:27.674Z,2.60
2022-09-28T13:23:15.872Z,3.10
2022-09-28T13:25:53.194Z,2.70
2022-09-28T13:28:26.293Z,3.33
2022-09-28T13:30:56.720Z,2.60
2022-09-28T13:33:33.972Z,2.60
2022-09-28T13:36:00.859Z,2.37
2022-09-28T13:38:27.365Z,2.70
2022-09-28T13:41:06.273Z,3.03
2022-09-28T13:44:06.745Z,2.63
2022-09-28T13:46:58.877Z,2.70
2022-09-28T13:49:31.228Z,2.63
2022-09-28T13:52:05.944Z,2.30
2022-09-28T13:54:47.610Z,2.90
2022-09-28T13:57:25.448Z,2.80
2022-09-28T14:00:03.682Z,2.60
2022-09-28T14:02:41.613Z,2.80
2022-09-28T14:05:23.239Z,2.70
2022-09-28T14:08:08.476Z,2.60
2022-09-28T14:10:53.038Z,2.50
2022-09-28T14:13:41.278Z,2.10
2022-09-28T14:16:26.853Z,2.13
2022-09-28T14:19:10.323Z,2.87
2022-09-28T14:22:11.386Z,2.40
2022-09-28T14:24:37.994Z,2.30
2022-09-28T14:27:36.320Z,1.97
2022-09-28T14:30:11.868Z,1.90
2022-09-28T14:32:45.305Z,2.27
2022-09-28T14:35:26.216Z,2.40
2022-09-28T14:38:18.004Z,1.90
2022-09-28T14:41:15.420Z,2.27
2022-09-28T14:43:45.128Z,2.20
2022-09-28T14:46:11.879Z,2.40
2022-09-28T14:48:56.295Z,2.10
2022-09-28T14:51:26.329Z,2.30
2022-09-28T14:53:55.012Z,2.10
2022-09-28T14:56:22.063Z,2.13
2022-09-28T14:58:56.205Z,2.00
2022-09-28T15:01:24.993Z,2.17
2022-09-28T15:03:56.191Z,1.90
2022-09-28T15:06:24.270Z,1.90
2022-09-28T15:08:50.950Z,1.90
2022-09-28T15:11:23.687Z,2.33
2022-09-28T15:14:00.204Z,1.67
2022-09-28T15:16:30.729Z,2.00
2022-09-28T15:19:19.517Z,2.00
2022-09-28T15:21:47.793Z,2.10
2022-09-28T15:24:25.792Z,2.00
2022-09-28T15:26:53.396Z,2.47
2022-09-28T15:29:22.933Z,2.80
2022-09-28T15:31:54.186Z,3.03
2022-09-28T15:34:57.021Z,2.97
2022-09-28T15:37:40.300Z,3.40
2022-09-28T15:40:15.196Z,3.33
2022-09-28T15:42:41.915Z,3.77
2022-09-28T15:45:14.307Z,3.77
2022-09-28T15:47:44.968Z,3.83
2022-09-28T15:50:24.669Z,4.10
2022-09-28T15:52:59.251Z,3.70
2022-09-28T15:55:30.775Z,3.90
2022-09-28T15:58:12.545Z,4.00
2022-09-28T16:00:40.336Z,3.50
2022-09-28T16:03:06.917Z,3.10
2022-09-28T16:05:46.894Z,3.50
2022-09-28T16:08:24.839Z,3.30
2022-09-28T16:11:03.250Z,3.53
2022-09-28T16:13:29.861Z,3.63
2022-09-28T16:16:00.292Z,4.00
2022-09-28T16:18:29.652Z,3.80
2022-09-28T16:21:19.116Z,4.23
2022-09-28T16:23:51.800Z,4.23
2022-09-28T16:26:31.235Z,4.17
2022-09-28T16:28:58.881Z,4.23
2022-09-28T16:31:33.953Z,3.80
2022-09-28T16:34:09.546Z,4.60
2022-09-28T16:36:46.265Z,5.23
2022-09-28T16:39:13.930Z,4.93
2022-09-28T16:41:44.251Z,4.93
2022-09-28T16:44:16.937Z,4.90
2022-09-28T16:46:44.933Z,5.33
2022-09-28T16:49:21.235Z,4.90
2022-09-28T16:51:48.394Z,4.70
2022-09-28T16:54:40.652Z,5.23
2022-09-28T16:57:09.849Z,4.73
2022-09-28T16:59:38.495Z,4.63
2022-09-28T17:02:35.423Z,5.40
2022-09-28T17:05:06.358Z,4.80
2022-09-28T17:07:33.440Z,5.43
2022-09-28T17:10:00.037Z,5.10
2022-09-28T17:12:29.060Z,4.97
2022-09-28T17:14:55.543Z,5.57
2022-09-28T17:17:22.784Z,5.53
2022-09-28T17:19:49.441Z,5.90
2022-09-28T17:22:16.894Z,6.30
2022-09-28T17:24:45.626Z,8.27
2022-09-28T17:27:18.835Z,8.17
2022-09-28T17:29:45.472Z,8.00
2022-09-28T17:32:19.032Z,7.23
2022-09-28T17:34:55.796Z,6.63
2022-09-28T17:37:36.303Z,5.53
2022-09-28T17:40:10.860Z,6.13
2022-09-28T17:42:37.613Z,5.93
2022-09-28T17:45:04.584Z,6.00
2022-09-28T17:47:34.317Z,5.93
2022-09-28T17:50:03.533Z,6.83
2022-09-28T17:52:30.136Z,7.47
2022-09-28T17:54:56.700Z,7.47
2022-09-28T17:57:23.342Z,6.60
2022-09-28T17:59:51.204Z,6.50
2022-09-28T18:02:17.865Z,6.13
2022-09-28T18:04:52.601Z,5.83
2022-09-28T18:07:19.440Z,6.97
2022-09-28T18:09:46.026Z,6.30
2022-09-28T18:12:12.883Z,6.30
2022-09-28T18:14:40.141Z,6.07
2022-09-28T18:17:06.917Z,5.23
2022-09-28T18:19:33.715Z,5.33
2022-09-28T18:22:01.640Z,6.00
2022-09-28T18:24:28.438Z,6.23
2022-09-28T18:26:55.313Z,5.83
2022-09-28T18:29:22.242Z,5.73
2022-09-28T18:31:49.005Z,4.83
2022-09-28T18:34:15.938Z,4.80
2022-09-28T18:36:42.848Z,5.77
2022-09-28T18:39:09.527Z,5.20
2022-09-28T18:41:36.350Z,5.20
2022-09-28T18:44:02.973Z,5.43
2022-09-28T18:46:36.317Z,5.73
2022-09-28T18:49:04.621Z,6.03
2022-09-28T18:51:31.376Z,6.13
2022-09-28T18:53:57.931Z,6.27
2022-09-28T18:56:24.775Z,6.27
2022-09-28T18:58:52.817Z,5.33
2022-09-28T19:01:36.307Z,6.00
2022-09-28T19:04:05.980Z,5.47
2022-09-28T19:06:34.717Z,6.03
2022-09-28T19:09:01.598Z,5.57
2022-09-28T19:11:28.794Z,6.80
2022-09-28T19:13:55.958Z,6.73
2022-09-28T19:16:28.861Z,6.50
2022-09-28T19:18:57.153Z,6.03
2022-09-28T19:21:23.728Z,6.93
2022-09-28T19:23:50.748Z,7.00
2022-09-28T19:26:21.128Z,7.60
2022-09-28T19:28:48.564Z,7.03
2022-09-28T19:31:16.047Z,7.03
2022-09-28T19:33:46.718Z,7.27
2022-09-28T19:36:18.828Z,7.00
2022-09-28T19:38:46.578Z,7.40
2022-09-28T19:41:35.877Z,7.67
2022-09-28T19:44:08.640Z,8.03
2022-09-28T19:46:37.866Z,8.47
2022-09-28T19:49:10.335Z,9.20
2022-09-28T19:51:46.919Z,9.40
2022-09-28T19:54:32.062Z,9.00
2022-09-28T19:57:07.822Z,10.43
2022-09-28T19:59:36.855Z,9.80
2022-09-28T20:02:05.743Z,9.90
2022-09-28T20:04:32.758Z,9.60
2022-09-28T20:06:59.572Z,9.97
2022-09-28T20:09:26.339Z,10.23
2022-09-28T20:11:53.294Z,10.87
2022-09-28T20:14:22.385Z,11.13
2022-09-28T20:16:51.744Z,11.90
2022-09-28T20:19:21.469Z,11.27
2022-09-28T20:21:48.402Z,11.53
2022-09-28T20:24:17.104Z,12.17
2022-09-28T20:26:44.883Z,13.27
2022-09-28T20:29:12.069Z,14.47
2022-09-28T20:31:39.135Z,16.00
2022-09-28T20:34:06.566Z,17.73
2022-09-28T20:36:34.039Z,17.40
2022-09-28T20:39:04.932Z,18.20
2022-09-28T20:41:36.614Z,16.83
2022-09-28T20:44:06.305Z,17.93
2022-09-28T20:46:34.957Z,19.17
2022-09-28T20:49:02.087Z,20.50
2022-09-28T20:51:28.742Z,19.63
2022-09-28T20:53:57.014Z,19.53
2022-09-28T20:56:31.664Z,20.27
2022-09-28T20:58:58.431Z,20.13
2022-09-28T21:01:26.946Z,20.10
2022-09-28T21:04:04.594Z,20.27
2022-09-28T21:06:34.111Z,19.90
2022-09-28T21:09:00.995Z,20.00
2022-09-28T21:11:29.680Z,21.57
2022-09-28T21:14:01.849Z,20.70
2022-09-28T21:16:32.384Z,20.37
2022-09-28T21:18:59.688Z,20.57
2022-09-28T21:21:27.247Z,21.57
2022-09-28T21:23:54.962Z,22.67
2022-09-28T21:26:27.537Z,22.23
2022-09-28T21:28:55.790Z,22.90
2022-09-28T21:31:28.537Z,22.13
2022-09-28T21:33:56.293Z,22.50
2022-09-28T21:36:23.059Z,22.80
2022-09-28T21:38:49.679Z,22.33
2022-09-28T21:41:16.535Z,23.87
2022-09-28T21:43:43.302Z,22.90
2022-09-28T21:46:10.087Z,23.03
2022-09-28T21:48:36.834Z,22.97
2022-09-28T21:51:06.060Z,23.10
2022-09-28T21:53:34.977Z,23.77
2022-09-28T21:56:03.007Z,22.43
2022-09-28T21:58:31.550Z,23.33
2022-09-28T22:01:05.663Z,23.43
2022-09-28T22:03:33.354Z,24.60
2022-09-28T22:05:59.964Z,23.90
2022-09-28T22:08:27.097Z,23.03
2022-09-28T22:11:03.417Z,24.03
2022-09-28T22:13:31.787Z,23.17
2022-09-28T22:15:58.923Z,23.33
2022-09-28T22:18:27.636Z,23.10
2022-09-28T22:21:15.715Z,24.73
2022-09-28T22:23:42.862Z,23.60
2022-09-28T22:26:19.121Z,25.43
2022-09-28T22:28:52.151Z,24.80
2022-09-28T22:31:21.893Z,23.20
2022-09-28T22:33:48.827Z,24.53
2022-09-28T22:36:17.024Z,23.63
2022-09-28T22:38:44.701Z,24.27
2022-09-28T22:41:11.727Z,23.83
2022-09-28T22:43:38.364Z,23.63
2022-09-28T22:46:10.592Z,24.50
2022-09-28T22:48:37.813Z,24.63
2022-09-28T22:51:06.477Z,24.77
2022-09-28T22:53:34.336Z,24.30
2022-09-28T22:56:05.828Z,25.37
2022-09-28T22:58:34.179Z,24.97
2022-09-28T23:01:08.054Z,24.03
2022-09-28T23:03:35.045Z,24.53
2022-09-28T23:06:01.845Z,24.20
2022-09-28T23:08:28.535Z,23.37
2022-09-28T23:10:55.171Z,23.40
2022-09-28T23:13:21.710Z,25.17
2022-09-28T23:15:58.482Z,25.37
2022-09-28T23:18:27.404Z,24.90
2022-09-28T23:20:55.913Z,26.57
2022-09-28T23:23:23.057Z,23.50
2022-09-28T23:25:50.391Z,22.73
2022-09-28T23:28:17.627Z,21.13
2022-09-28T23:30:44.167Z,22.17
2022-09-28T23:33:18.936Z,20.57
2022-09-28T23:35:46.010Z,20.93
2022-09-28T23:38:14.810Z,21.47
2022-09-28T23:40:41.655Z,21.03
2022-09-28T23:43:08.766Z,21.50
2022-09-28T23:45:35.416Z,21.93
2022-09-28T23:48:02.337Z,23.47
2022-09-28T23:50:29.064Z,23.87
2022-09-28T23:52:55.740Z,22.97
2022-09-28T23:55:22.996Z,23.40
2022-09-28T23:57:49.573Z,22.37
